Time;durP1;ratioP1;P1;durP2;ratioP2;P2;SDS_P1;SDS_P2;PMS_P1;PMS_P2;Temp;Humidity;BMP_temperature;BMP_pressure;BME280_temperature;BME280_humidity;BME280_pressure;Samples;Min_cycle;Max_cycle;Signal;HPM_P1;HPM_P2
2021/04/20 00:02:09;;;;;;;18.70;13.75;;;8.10;99.90;;;;;;4975362;28;20488;-65
2021/04/20 00:04:36;;;;;;;17.95;12.98;;;8.10;99.90;;;;;;4976125;28;20506;-66
2021/04/20 00:07:04;;;;;;;17.03;13.20;;;8.10;99.90;;;;;;4976229;28;20406;-68
2021/04/20 00:09:32;;;;;;;15.23;12.30;;;8.10;99.90;;;;;;4975454;28;20413;-65
2021/04/20 00:11:59;;;;;;;16.87;13.03;;;8.10;99.90;;;;;;4975215;28;20428;-65
2021/04/20 00:14:28;;;;;;;14.48;12.38;;;8.10;99.90;;;;;;4975084;28;20440;-68
2021/04/20 00:16:55;;;;;;;19.15;13.73;;;8.00;99.90;;;;;;4974661;28;20511;-65
2021/04/20 00:19:24;;;;;;;16.98;14.05;;;8.00;99.90;;;;;;4975968;28;20965;-66
2021/04/20 00:21:51;;;;;;;17.83;13.48;;;7.90;99.90;;;;;;4975575;28;20415;-65
2021/04/20 00:24:20;;;;;;;17.60;13.50;;;7.90;99.90;;;;;;4975763;28;20412;-66
2021/04/20 00:26:47;;;;;;;16.75;13.70;;;7.90;99.90;;;;;;4974324;28;20443;-65
2021/04/20 00:29:15;;;;;;;19.33;13.43;;;7.80;99.90;;;;;;4975937;28;20443;-66
2021/04/20 00:31:44;;;;;;;20.83;14.15;;;7.80;99.90;;;;;;4975511;28;20428;-65
2021/04/20 00:34:12;;;;;;;17.65;13.23;;;7.80;99.90;;;;;;4977244;28;20423;-64
2021/04/20 00:36:39;;;;;;;17.98;13.52;;;7.80;99.90;;;;;;4977813;28;20757;-65
2021/04/20 00:39:07;;;;;;;20.40;14.02;;;7.80;99.90;;;;;;4977023;28;20947;-66
2021/04/20 00:41:35;;;;;;;16.08;13.75;;;7.80;99.90;;;;;;4975937;28;20413;-65
2021/04/20 00:44:03;;;;;;;17.02;13.98;;;7.80;99.90;;;;;;4974179;28;20416;-66
2021/04/20 00:46:31;;;;;;;16.77;12.88;;;7.80;99.90;;;;;;4974801;28;20475;-65
2021/04/20 00:48:59;;;;;;;17.88;13.43;;;7.90;99.90;;;;;;4975998;28;20503;-64
2021/04/20 00:51:27;;;;;;;17.35;13.55;;;7.90;99.90;;;;;;4974516;28;20503;-64
2021/04/20 00:53:55;;;;;;;17.30;13.40;;;7.90;99.90;;;;;;4975165;28;20804;-65
2021/04/20 00:56:23;;;;;;;20.67;13.43;;;7.80;99.90;;;;;;4975101;28;20781;-64
2021/04/20 00:58:51;;;;;;;16.52;12.82;;;7.80;99.90;;;;;;4975762;28;20416;-68
2021/04/20 01:01:19;;;;;;;18.65;13.60;;;7.90;99.90;;;;;;4976964;28;20435;-68
2021/04/20 01:03:46;;;;;;;17.02;12.98;;;7.80;99.90;;;;;;4995094;28;20433;-65
2021/04/20 01:06:15;;;;;;;17.23;14.05;;;7.80;99.90;;;;;;4980209;28;20451;-66
2021/04/20 01:08:44;;;;;;;17.15;12.73;;;7.80;99.90;;;;;;4979984;28;20424;-66
2021/04/20 01:11:12;;;;;;;19.85;14.48;;;7.70;99.90;;;;;;4979855;28;20438;-65
2021/04/20 01:13:41;;;;;;;17.33;13.50;;;7.70;99.90;;;;;;4980475;28;20416;-65
2021/04/20 01:16:08;;;;;;;17.30;13.20;;;7.80;99.90;;;;;;4978969;28;20795;-65
2021/04/20 01:18:37;;;;;;;16.92;12.93;;;7.80;99.90;;;;;;4994659;28;20427;-66
2021/04/20 01:21:08;;;;;;;17.30;13.48;;;7.80;99.90;;;;;;4979669;28;20427;-66
2021/04/20 01:23:53;;;;;;;16.38;14.00;;;7.80;99.90;;;;;;4979358;28;20404;-67
2021/04/20 01:26:26;;;;;;;18.15;12.90;;;7.70;99.90;;;;;;4979160;28;20412;-64
2021/04/20 01:28:55;;;;;;;20.73;14.50;;;7.70;99.90;;;;;;4978215;28;20812;-65
2021/04/20 01:31:23;;;;;;;16.92;14.07;;;7.80;99.90;;;;;;4978467;28;20439;-66
2021/04/20 01:33:51;;;;;;;17.45;13.50;;;7.80;99.90;;;;;;4979684;28;20404;-65
2021/04/20 01:36:20;;;;;;;15.80;13.35;;;7.70;99.90;;;;;;4979695;28;20428;-66
2021/04/20 01:38:49;;;;;;;19.00;13.90;;;7.70;99.90;;;;;;4979817;28;20924;-66
2021/04/20 01:41:18;;;;;;;19.75;14.30;;;7.70;99.90;;;;;;4980245;28;20494;-68
2021/04/20 01:43:46;;;;;;;20.83;14.50;;;7.60;99.90;;;;;;4979948;28;20426;-68
2021/04/20 01:46:15;;;;;;;22.48;16.70;;;7.60;99.90;;;;;;4976897;28;20435;-66
2021/04/20 01:48:45;;;;;;;20.03;15.73;;;7.50;99.90;;;;;;4978001;28;20439;-65
2021/04/20 01:51:14;;;;;;;21.07;16.40;;;7.40;99.90;;;;;;4994013;28;20455;-66
2021/04/20 01:53:41;;;;;;;21.10;15.90;;;7.30;99.90;;;;;;4979317;28;20407;-65
2021/04/20 01:56:10;;;;;;;21.40;15.77;;;7.20;99.90;;;;;;4993992;28;20433;-66
2021/04/20 01:58:40;;;;;;;25.10;17.35;;;7.10;99.90;;;;;;4978161;28;20423;-68
2021/04/20 02:01:11;;;;;;;22.92;16.50;;;7.10;99.90;;;;;;4977855;28;20420;-67
2021/04/20 02:03:39;;;;;;;25.52;17.63;;;7.10;99.90;;;;;;4976733;28;20458;-64
2021/04/20 02:06:08;;;;;;;25.73;18.38;;;7.10;99.90;;;;;;4977932;28;20419;-65
2021/04/20 02:08:36;;;;;;;22.70;16.58;;;7.10;99.90;;;;;;4977596;28;20408;-66
2021/04/20 02:11:07;;;;;;;22.08;15.57;;;7.10;99.90;;;;;;4978399;28;20420;-66
2021/04/20 02:13:35;;;;;;;26.13;18.00;;;7.10;99.90;;;;;;4977421;28;20432;-64
2021/04/20 02:16:04;;;;;;;24.45;17.35;;;7.10;99.90;;;;;;4976896;28;20416;-65
2021/04/20 02:18:34;;;;;;;21.38;16.30;;;7.20;99.90;;;;;;4977297;28;20476;-68
2021/04/20 02:21:03;;;;;;;23.85;17.05;;;7.30;99.90;;;;;;4992380;28;20454;-68
2021/04/20 02:23:32;;;;;;;24.83;17.83;;;7.30;99.90;;;;;;4991981;28;20434;-65
2021/04/20 02:26:04;;;;;;;27.33;18.40;;;7.30;99.90;;;;;;4977610;28;20448;-66
2021/04/20 02:28:32;;;;;;;26.65;18.92;;;7.40;99.90;;;;;;4978120;28;20419;-65
2021/04/20 02:31:01;;;;;;;25.98;19.48;;;7.40;99.90;;;;;;4991788;28;20420;-66
2021/04/20 02:33:29;;;;;;;28.60;19.00;;;7.40;99.90;;;;;;4992719;28;20464;-65
2021/04/20 02:36:05;;;;;;;25.65;18.60;;;7.40;99.90;;;;;;4977600;28;20460;-65
2021/04/20 02:38:34;;;;;;;27.30;18.50;;;7.40;99.90;;;;;;4977447;28;20435;-66
2021/04/20 02:41:04;;;;;;;25.30;18.58;;;7.40;99.90;;;;;;4993872;28;20424;-65
2021/04/20 02:43:33;;;;;;;27.52;18.52;;;7.40;99.90;;;;;;4977865;28;20427;-69
2021/04/20 02:46:02;;;;;;;27.73;18.63;;;7.40;99.90;;;;;;4977967;28;20416;-65
2021/04/20 02:48:31;;;;;;;28.65;18.83;;;7.40;99.90;;;;;;4984976;28;20473;-67
2021/04/20 02:51:00;;;;;;;25.33;19.27;;;7.40;99.90;;;;;;4983671;28;20426;-69
2021/04/20 02:53:30;;;;;;;25.63;19.40;;;7.40;99.90;;;;;;4977791;28;20921;-65
2021/04/20 02:55:58;;;;;;;27.55;18.15;;;7.30;99.90;;;;;;4978902;28;20753;-66
2021/04/20 02:58:28;;;;;;;26.40;17.97;;;7.30;99.90;;;;;;4976879;28;20447;-66
2021/04/20 03:01:01;;;;;;;22.35;17.40;;;7.30;99.90;;;;;;4976705;28;20408;-66
2021/04/20 03:03:29;;;;;;;30.35;19.30;;;7.20;99.90;;;;;;4978138;28;20762;-66
2021/04/20 03:06:01;;;;;;;25.95;19.20;;;7.20;99.90;;;;;;4977994;28;20444;-67
2021/04/20 03:08:29;;;;;;;25.75;18.73;;;7.10;99.90;;;;;;4977924;28;20475;-66
2021/04/20 03:11:04;;;;;;;28.52;19.70;;;7.10;99.90;;;;;;4978654;28;20780;-66
2021/04/20 03:13:32;;;;;;;30.60;20.73;;;7.00;99.90;;;;;;4978798;28;20506;-67
2021/04/20 03:16:04;;;;;;;31.85;20.95;;;6.90;99.90;;;;;;4978139;28;20742;-66
2021/04/20 03:18:33;;;;;;;29.73;20.38;;;6.80;99.90;;;;;;4978532;28;20412;-69
2021/04/20 03:21:26;;;;;;;30.23;21.13;;;6.80;99.90;;;;;;4976920;28;20428;-67
2021/04/20 03:23:56;;;;;;;31.67;21.53;;;6.70;99.90;;;;;;4977644;28;20440;-65
2021/04/20 03:26:33;;;;;;;33.13;20.73;;;6.70;99.90;;;;;;4977503;28;20499;-69
2021/04/20 03:29:08;;;;;;;29.25;21.05;;;6.60;99.90;;;;;;5007629;23;20411;-67
2021/04/20 03:31:38;;;;;;;30.93;21.33;;;6.50;99.90;;;;;;4952862;28;20972;-66
2021/04/20 03:34:15;;;;;;;33.13;22.20;;;6.50;99.90;;;;;;4955017;28;20533;-66
2021/04/20 03:36:49;;;;;;;32.55;22.23;;;6.40;99.90;;;;;;4953971;28;20433;-67
2021/04/20 03:39:22;;;;;;;31.30;21.42;;;6.40;99.90;;;;;;4954606;29;20822;-69
2021/04/20 03:41:55;;;;;;;33.40;22.30;;;6.30;99.90;;;;;;4954598;29;20413;-67
2021/04/20 03:44:27;;;;;;;28.77;20.88;;;6.30;99.90;;;;;;4953182;28;20429;-70
2021/04/20 03:46:59;;;;;;;32.70;21.85;;;6.40;99.90;;;;;;4953851;28;20413;-67
2021/04/20 03:49:31;;;;;;;31.88;22.50;;;6.40;99.90;;;;;;4955043;28;20450;-69
2021/04/20 03:52:00;;;;;;;34.03;22.58;;;6.40;99.90;;;;;;4954467;28;20426;-67
2021/04/20 03:54:31;;;;;;;33.67;22.33;;;6.50;99.90;;;;;;4954648;28;20425;-66
2021/04/20 03:57:01;;;;;;;34.47;22.30;;;6.50;99.90;;;;;;4954505;29;20425;-67
2021/04/20 03:59:30;;;;;;;31.13;21.50;;;6.60;99.90;;;;;;4954647;28;20521;-66
2021/04/20 04:02:00;;;;;;;28.90;21.83;;;6.60;99.90;;;;;;4952525;29;20428;-67
2021/04/20 04:04:29;;;;;;;35.35;22.90;;;6.70;99.90;;;;;;4954510;28;20433;-67
2021/04/20 04:06:59;;;;;;;29.08;21.05;;;6.70;99.90;;;;;;4953188;29;20497;-66
2021/04/20 04:09:29;;;;;;;33.53;22.02;;;6.70;99.90;;;;;;4953142;29;20457;-66
2021/04/20 04:12:01;;;;;;;32.35;22.65;;;6.80;99.90;;;;;;4954207;28;20857;-67
2021/04/20 04:14:32;;;;;;;33.35;21.88;;;6.80;99.90;;;;;;4953167;29;20413;-67
2021/04/20 04:17:06;;;;;;;33.67;22.67;;;6.80;99.90;;;;;;4953342;28;20406;-67
2021/04/20 04:19:38;;;;;;;32.80;22.48;;;6.70;99.90;;;;;;4954679;29;20417;-67
2021/04/20 04:22:10;;;;;;;31.40;22.42;;;6.70;99.90;;;;;;4954222;28;20429;-67
2021/04/20 04:24:45;;;;;;;29.08;21.80;;;6.60;99.90;;;;;;4953030;29;20429;-67
2021/04/20 04:27:14;;;;;;;32.70;22.13;;;6.60;99.90;;;;;;4954511;28;20878;-67
2021/04/20 04:29:44;;;;;;;37.15;22.98;;;6.50;99.90;;;;;;4953023;29;20438;-68
2021/04/20 04:32:12;;;;;;;38.90;24.80;;;6.40;99.90;;;;;;4959643;28;20432;-67
2021/04/20 04:34:41;;;;;;;37.40;23.57;;;6.50;99.90;;;;;;4943412;29;20416;-67
2021/04/20 04:37:09;;;;;;;34.33;23.38;;;6.40;99.90;;;;;;4961066;28;20429;-68
2021/04/20 04:39:40;;;;;;;32.58;22.75;;;6.30;99.90;;;;;;4959815;29;20414;-67
2021/04/20 04:42:09;;;;;;;35.50;22.63;;;6.30;99.90;;;;;;4962789;29;20433;-67
2021/04/20 04:44:37;;;;;;;40.88;25.30;;;6.20;99.90;;;;;;4956266;28;20418;-67
2021/04/20 04:47:06;;;;;;;40.33;25.40;;;6.20;99.90;;;;;;4953846;29;20917;-67
2021/04/20 04:49:35;;;;;;;37.30;24.13;;;6.20;99.90;;;;;;4955776;29;20425;-68
2021/04/20 04:52:04;;;;;;;38.72;24.70;;;6.20;99.90;;;;;;4967736;28;20429;-69
2021/04/20 04:54:32;;;;;;;38.43;25.70;;;6.10;99.90;;;;;;4971637;29;20418;-68
2021/04/20 04:57:04;;;;;;;38.87;24.40;;;6.20;99.90;;;;;;4968128;28;20406;-68
2021/04/20 04:59:32;;;;;;;36.53;24.40;;;6.20;99.90;;;;;;4966727;28;20446;-67
2021/04/20 05:02:00;;;;;;;37.40;25.13;;;6.30;99.90;;;;;;4966097;28;20442;-69
2021/04/20 05:04:29;;;;;;;36.90;25.05;;;6.30;99.90;;;;;;4968263;28;20430;-67
2021/04/20 05:06:57;;;;;;;34.60;23.83;;;6.40;99.90;;;;;;4969103;29;20422;-67
2021/04/20 05:09:26;;;;;;;33.83;21.90;;;6.40;99.90;;;;;;4970269;29;20418;-68
2021/04/20 05:12:20;;;;;;;32.42;22.55;;;6.50;99.90;;;;;;4970863;29;20421;-68
2021/04/20 05:14:48;;;;;;;29.50;20.85;;;6.50;99.90;;;;;;4973079;28;20417;-67
2021/04/20 05:17:41;;;;;;;30.58;21.88;;;6.40;99.90;;;;;;4964053;28;20530;-69
2021/04/20 05:20:12;;;;;;;34.67;22.63;;;6.30;99.90;;;;;;4955533;28;20432;-67
2021/04/20 05:22:40;;;;;;;30.83;21.17;;;6.20;99.90;;;;;;4953527;29;20778;-68
2021/04/20 05:25:09;;;;;;;29.10;21.88;;;6.10;99.90;;;;;;4953855;29;20418;-68
2021/04/20 05:27:39;;;;;;;33.40;21.77;;;6.10;99.90;;;;;;4954810;29;20417;-69
2021/04/20 05:30:09;;;;;;;37.35;22.00;;;6.00;99.90;;;;;;4954966;29;20434;-67
2021/04/20 05:32:38;;;;;;;48.13;23.17;;;5.90;99.90;;;;;;4953524;28;20433;-67
2021/04/20 05:35:08;;;;;;;39.95;22.88;;;5.80;99.90;;;;;;4952294;29;20759;-67
2021/04/20 05:37:37;;;;;;;52.00;25.42;;;5.90;99.90;;;;;;4952873;29;20737;-68
2021/04/20 05:40:08;;;;;;;76.13;25.33;;;5.90;99.90;;;;;;4954017;28;20429;-66
2021/04/20 05:42:35;;;;;;;57.67;25.58;;;5.80;99.90;;;;;;4952719;29;20457;-66
2021/04/20 05:45:05;;;;;;;53.33;25.90;;;5.80;99.90;;;;;;4952990;29;20433;-67
2021/04/20 05:47:33;;;;;;;48.72;23.50;;;6.00;99.90;;;;;;4955822;28;20422;-68
2021/04/20 05:50:03;;;;;;;46.25;24.17;;;6.10;99.90;;;;;;4957834;28;20414;-71
2021/04/20 05:52:34;;;;;;;39.33;22.88;;;6.20;99.90;;;;;;4956020;29;20437;-67
2021/04/20 05:55:28;;;;;;;46.78;22.83;;;6.30;99.90;;;;;;4940609;29;20921;-68
2021/04/20 05:57:56;;;;;;;66.40;23.73;;;6.30;99.90;;;;;;4940264;29;20418;-68
2021/04/20 06:00:25;;;;;;;47.58;23.80;;;6.20;99.90;;;;;;4980587;23;20455;-65
2021/04/20 06:05:46;;;;;;;50.30;24.83;;;6.40;99.90;;;;;;4976659;28;20404;-65
2021/04/20 06:08:14;;;;;;;50.85;24.80;;;6.40;99.90;;;;;;4976425;28;20408;-64
2021/04/20 06:10:43;;;;;;;50.28;25.73;;;6.40;99.90;;;;;;4977133;28;20414;-64
2021/04/20 06:13:11;;;;;;;46.70;23.77;;;6.50;99.90;;;;;;4975195;28;20543;-67
2021/04/20 06:15:39;;;;;;;40.00;24.50;;;6.50;99.90;;;;;;4975601;28;20412;-64
2021/04/20 06:18:07;;;;;;;56.63;24.60;;;6.60;99.90;;;;;;4976954;28;20895;-65
2021/04/20 06:20:36;;;;;;;43.03;23.92;;;6.70;99.90;;;;;;4959482;28;20414;-64
2021/04/20 06:26:03;;;;;;;37.38;21.80;;;7.00;99.90;;;;;;4960559;28;20408;-64
2021/04/20 06:28:31;;;;;;;33.20;20.37;;;7.10;99.90;;;;;;4977596;28;20420;-64
2021/04/20 06:31:05;;;;;;;42.63;21.48;;;7.40;99.90;;;;;;4976563;28;20443;-64
2021/04/20 06:33:36;;;;;;;36.30;20.75;;;7.30;99.90;;;;;;4975696;28;20420;-64
2021/04/20 06:39:00;;;;;;;32.20;22.10;;;7.30;99.90;;;;;;4976024;28;20536;-64
2021/04/20 06:41:30;;;;;;;30.65;21.00;;;7.60;99.90;;;;;;4975365;28;20420;-63
2021/04/20 06:44:04;;;;;;;27.40;20.03;;;8.00;99.90;;;;;;4976870;28;20503;-69
2021/04/20 06:46:39;;;;;;;29.80;20.63;;;8.20;99.90;;;;;;4990782;28;20515;-63
2021/04/20 06:49:13;;;;;;;26.80;20.00;;;8.20;99.90;;;;;;4959283;28;20963;-64
2021/04/20 06:51:45;;;;;;;29.25;20.00;;;8.30;99.90;;;;;;4976630;28;20761;-64
2021/04/20 06:54:23;;;;;;;28.20;19.70;;;8.60;99.90;;;;;;4975947;28;20531;-65
2021/04/20 06:56:57;;;;;;;29.37;19.77;;;9.10;99.90;;;;;;4974577;28;20416;-64
2021/04/20 06:59:38;;;;;;;29.48;20.50;;;9.80;99.90;;;;;;4957504;28;20904;-65
2021/04/20 07:02:17;;;;;;;28.73;21.00;;;9.40;99.90;;;;;;4975289;28;20420;-65
2021/04/20 07:04:48;;;;;;;29.27;20.60;;;9.70;99.90;;;;;;4976145;28;20490;-64
2021/04/20 07:07:39;;;;;;;27.52;21.02;;;10.20;99.90;;;;;;4976266;28;20412;-64
2021/04/20 07:10:19;;;;;;;30.55;20.65;;;10.20;99.90;;;;;;4976866;28;20504;-65
2021/04/20 07:12:49;;;;;;;31.42;21.45;;;10.20;99.90;;;;;;4975572;28;20486;-65
2021/04/20 07:15:20;;;;;;;30.98;23.08;;;10.00;99.90;;;;;;4973608;28;20412;-64
2021/04/20 07:18:38;;;;;;;31.05;22.63;;;9.50;99.90;;;;;;4975914;28;20447;-65
2021/04/20 07:21:57;;;;;;;31.33;23.80;;;9.90;99.90;;;;;;4950894;28;20892;-65
2021/04/20 07:24:31;;;;;;;32.50;23.33;;;9.90;99.90;;;;;;4975978;28;20436;-65
2021/04/20 07:27:24;;;;;;;35.67;24.38;;;10.30;99.90;;;;;;4975454;28;20829;-64
2021/04/20 07:30:06;;;;;;;32.72;24.88;;;10.70;99.90;;;;;;4975606;28;20419;-66
2021/04/20 07:32:46;;;;;;;32.40;23.30;;;11.10;99.90;;;;;;4974702;28;20969;-65
2021/04/20 07:35:24;;;;;;;31.47;21.77;;;12.30;99.90;;;;;;4974790;28;20420;-64
2021/04/20 07:37:56;;;;;;;29.25;23.35;;;13.10;99.90;;;;;;4974920;28;20428;-68
2021/04/20 07:40:40;;;;;;;30.30;22.55;;;13.00;99.90;;;;;;4973480;28;20459;-65
2021/04/20 07:43:38;;;;;;;29.83;22.58;;;13.70;99.90;;;;;;4975200;28;20431;-66
2021/04/20 07:46:12;;;;;;;30.73;23.40;;;13.70;99.90;;;;;;4977188;28;20414;-65
2021/04/20 07:48:50;;;;;;;26.60;22.00;;;15.30;99.90;;;;;;4994441;28;20493;-66
2021/04/20 07:51:26;;;;;;;26.02;22.10;;;15.30;98.90;;;;;;4994120;28;20422;-67
2021/04/20 07:54:03;;;;;;;28.40;22.42;;;15.30;99.40;;;;;;4993310;28;20458;-66
2021/04/20 07:56:34;;;;;;;28.35;22.52;;;15.80;98.90;;;;;;4994625;28;20453;-66
2021/04/20 07:59:31;;;;;;;29.17;23.20;;;16.70;97.30;;;;;;4994298;28;20411;-66
2021/04/20 08:02:35;;;;;;;27.95;22.90;;;17.30;95.40;;;;;;4992490;28;20415;-66
2021/04/20 08:05:11;;;;;;;27.00;22.42;;;16.60;96.10;;;;;;4995044;28;20412;-66
2021/04/20 08:07:46;;;;;;;29.23;23.40;;;16.80;95.50;;;;;;4993673;28;20422;-66
2021/04/20 08:10:15;;;;;;;27.38;23.05;;;16.70;94.70;;;;;;4994075;28;20426;-66
2021/04/20 08:12:50;;;;;;;29.15;23.65;;;16.70;95.20;;;;;;4993724;28;20512;-66
2021/04/20 08:15:27;;;;;;;29.67;24.50;;;17.20;93.90;;;;;;4993007;28;20486;-66
2021/04/20 08:18:02;;;;;;;28.67;23.30;;;16.60;94.10;;;;;;4994740;28;20485;-66
2021/04/20 08:20:38;;;;;;;30.95;24.10;;;17.50;93.70;;;;;;4993517;28;20488;-66
2021/04/20 08:23:09;;;;;;;29.85;23.92;;;17.20;93.10;;;;;;4993265;28;20526;-66
2021/04/20 08:25:41;;;;;;;29.48;23.50;;;16.60;94.90;;;;;;4994310;28;20886;-66
2021/04/20 08:28:20;;;;;;;29.67;22.20;;;17.00;95.00;;;;;;4994826;28;20465;-67
2021/04/20 08:30:51;;;;;;;28.85;22.92;;;17.10;94.40;;;;;;4977173;28;20434;-66
2021/04/20 08:33:24;;;;;;;28.80;24.00;;;17.50;93.20;;;;;;4996685;28;20496;-66
2021/04/20 08:39:04;;;;;;;27.98;23.35;;;19.50;89.70;;;;;;5004816;28;20435;-67
2021/04/20 08:41:38;;;;;;;28.90;23.30;;;19.70;87.20;;;;;;4995337;28;20826;-67
2021/04/20 08:44:21;;;;;;;29.95;24.45;;;19.60;84.10;;;;;;4994661;28;20412;-69
2021/04/20 08:46:56;;;;;;;26.77;23.45;;;19.90;82.30;;;;;;4994893;28;20417;-68
2021/04/20 08:49:40;;;;;;;28.30;23.88;;;19.80;84.00;;;;;;4994536;28;20747;-66
2021/04/20 08:52:21;;;;;;;31.20;24.70;;;18.80;80.40;;;;;;4995480;28;20410;-66
2021/04/20 08:55:05;;;;;;;30.02;24.35;;;18.40;86.70;;;;;;4994235;28;20452;-66
2021/04/20 08:58:13;;;;;;;27.92;22.75;;;17.80;86.10;;;;;;4977292;28;20437;-66
2021/04/20 09:00:51;;;;;;;27.00;23.48;;;19.50;86.50;;;;;;4994897;28;20447;-67
2021/04/20 09:03:26;;;;;;;29.92;24.15;;;20.70;82.70;;;;;;4994647;28;20461;-67
2021/04/20 09:05:57;;;;;;;31.75;24.73;;;19.40;79.80;;;;;;4995636;28;20525;-69
2021/04/20 09:08:35;;;;;;;30.50;24.90;;;17.80;83.00;;;;;;4995545;28;20454;-67
2021/04/20 09:11:09;;;;;;;26.97;22.70;;;17.60;83.70;;;;;;4994958;28;20465;-67
2021/04/20 09:13:43;;;;;;;26.30;21.80;;;18.50;83.90;;;;;;4978248;28;20467;-67
2021/04/20 09:16:19;;;;;;;26.70;19.23;;;21.30;77.50;;;;;;4994388;28;20234;-69
2021/04/20 09:18:47;;;;;;;25.25;21.30;;;22.50;68.50;;;;;;4993907;28;20442;-68
2021/04/20 09:21:19;;;;;;;24.30;20.70;;;23.50;64.20;;;;;;4993967;28;20438;-67
2021/04/20 09:24:13;;;;;;;26.58;20.75;;;21.70;63.20;;;;;;4997113;28;20414;-67
2021/04/20 09:27:05;;;;;;;24.50;19.95;;;19.50;69.90;;;;;;4997901;28;20497;-67
2021/04/20 09:29:38;;;;;;;22.95;19.63;;;21.30;70.20;;;;;;4998084;28;20409;-67
2021/04/20 09:32:08;;;;;;;23.45;18.95;;;22.70;63.20;;;;;;4997374;28;20754;-66
2021/04/20 09:34:42;;;;;;;25.48;20.40;;;22.70;59.30;;;;;;4998125;28;20481;-67
2021/04/20 09:37:10;;;;;;;24.17;20.10;;;20.90;63.50;;;;;;4998330;28;20410;-67
2021/04/20 09:39:43;;;;;;;24.40;20.88;;;20.20;65.10;;;;;;4998762;28;20469;-67
2021/04/20 09:42:13;;;;;;;26.05;20.10;;;19.00;70.10;;;;;;4999678;28;20937;-67
2021/04/20 09:45:09;;;;;;;21.85;18.40;;;18.70;74.10;;;;;;5000826;28;20422;-67
2021/04/20 09:47:53;;;;;;;22.33;18.65;;;20.10;70.00;;;;;;4998698;28;20446;-67
2021/04/20 09:50:27;;;;;;;23.75;19.67;;;20.60;68.70;;;;;;4998055;28;20402;-67
2021/04/20 09:53:15;;;;;;;22.13;19.08;;;21.50;65.70;;;;;;4998273;28;20494;-67
2021/04/20 09:55:48;;;;;;;21.65;18.73;;;22.00;65.00;;;;;;4998097;28;20415;-67
2021/04/20 09:58:21;;;;;;;21.65;19.33;;;24.70;60.10;;;;;;4999267;28;20414;-68
2021/04/20 10:00:50;;;;;;;21.25;19.05;;;24.60;57.70;;;;;;4996508;28;20418;-68
2021/04/20 10:03:29;;;;;;;21.50;19.20;;;23.10;58.30;;;;;;4998082;28;20453;-68
2021/04/20 10:06:26;;;;;;;23.25;20.63;;;23.20;58.70;;;;;;4998109;28;20490;-68
2021/04/20 10:09:06;;;;;;;21.70;18.33;;;19.60;66.00;;;;;;4998186;28;20418;-68
2021/04/20 10:11:45;;;;;;;22.70;19.20;;;19.00;71.10;;;;;;4998869;28;20521;-68
2021/04/20 10:14:24;;;;;;;22.23;19.02;;;19.70;68.80;;;;;;4956821;29;20425;-69
2021/04/20 10:17:01;;;;;;;20.65;17.13;;;20.70;65.00;;;;;;4958111;29;20477;-66
2021/04/20 10:19:34;;;;;;;19.60;15.77;;;21.60;62.60;;;;;;4975325;28;20512;-64
2021/04/20 10:22:12;;;;;;;17.70;14.55;;;19.40;63.90;;;;;;4974853;28;20750;-64
2021/04/20 10:24:47;;;;;;;17.60;14.23;;;17.60;67.20;;;;;;4975157;28;20446;-65
2021/04/20 10:27:18;;;;;;;15.20;13.52;;;16.40;70.80;;;;;;4959516;28;20418;-65
2021/04/20 10:29:53;;;;;;;17.90;14.10;;;16.10;71.20;;;;;;4975944;28;20603;-65
2021/04/20 10:32:25;;;;;;;482.30;412.37;;;16.20;74.90;;;;;;4959367;28;20525;-67
2021/04/20 10:34:54;;;;;;;974.42;898.83;;;16.20;76.30;;;;;;4973444;28;20426;-68
2021/04/20 10:37:43;;;;;;;1043.10;958.17;;;16.80;76.90;;;;;;4958780;28;20417;-65
2021/04/20 10:40:14;;;;;;;1048.25;965.20;;;17.50;73.70;;;;;;4974258;28;20504;-65
2021/04/20 10:42:44;;;;;;;1073.10;990.00;;;17.60;72.10;;;;;;4958719;28;20774;-70
2021/04/20 10:45:14;;;;;;;1050.07;968.90;;;18.00;71.50;;;;;;4974127;28;20418;-65
2021/04/20 10:47:48;;;;;;;1064.23;982.03;;;17.90;71.60;;;;;;4959258;29;20434;-65
2021/04/20 10:50:20;;;;;;;526.60;501.42;;;18.80;70.00;;;;;;4958238;29;20509;-66
2021/04/20 10:52:54;;;;;;;1098.20;999.90;;;20.10;65.70;;;;;;4958221;29;20418;-65
2021/04/20 10:55:27;;;;;;;13.17;11.80;;;20.00;62.10;;;;;;4960714;28;20441;-65
2021/04/20 10:57:55;;;;;;;;;;;21.10;61.80;;;;;;4975299;28;20435;-64
2021/04/20 11:00:27;;;;;;;807.63;742.70;;;20.60;62.10;;;;;;4957395;28;20577;-65
2021/04/20 11:02:58;;;;;;;472.05;315.50;;;22.00;60.00;;;;;;4960212;29;20200;-67
2021/04/20 11:05:27;;;;;;;916.88;847.67;;;21.30;58.00;;;;;;4958649;29;25086;-65
2021/04/20 11:07:58;;;;;;;903.10;835.35;;;20.80;59.00;;;;;;4957681;28;20470;-64
2021/04/20 11:10:35;;;;;;;892.85;823.50;;;19.30;62.50;;;;;;4959066;29;20418;-66
2021/04/20 11:13:05;;;;;;;775.72;713.38;;;20.10;63.50;;;;;;4958855;28;20438;-65
2021/04/20 11:15:34;;;;;;;846.97;782.42;;;22.10;59.50;;;;;;4956789;28;20430;-65
2021/04/20 11:18:07;;;;;;;868.22;803.75;;;23.70;55.60;;;;;;4973203;28;20766;-64
2021/04/20 11:20:38;;;;;;;821.95;759.95;;;24.90;52.10;;;;;;4973474;28;20488;-65
2021/04/20 11:23:21;;;;;;;786.72;724.97;;;22.20;52.70;;;;;;4959182;28;20468;-64
2021/04/20 11:25:57;;;;;;;875.53;811.25;;;20.70;58.30;;;;;;4958913;29;20421;-63
2021/04/20 11:28:33;;;;;;;856.78;790.10;;;21.40;57.80;;;;;;4957456;29;20413;-64
2021/04/20 11:31:04;;;;;;;737.75;677.22;;;20.60;55.40;;;;;;4972514;28;20531;-64
2021/04/20 11:36:39;;;;;;;1002.70;929.38;;;18.80;60.00;;;;;;4941188;29;20414;-65
2021/04/20 11:39:09;;;;;;;1015.08;942.42;;;18.80;62.60;;;;;;4958462;28;20949;-64
2021/04/20 11:41:42;;;;;;;1010.90;935.45;;;20.10;60.20;;;;;;4973411;28;20492;-65
2021/04/20 11:44:11;;;;;;;1009.88;934.75;;;19.70;59.90;;;;;;4956843;28;20434;-65
2021/04/20 11:49:45;;;;;;;965.20;893.30;;;20.20;61.20;;;;;;4973290;28;20414;-65
2021/04/20 11:52:16;;;;;;;880.58;812.33;;;19.00;62.00;;;;;;4958452;28;20868;-64
2021/04/20 11:54:46;;;;;;;976.20;904.90;;;18.60;64.50;;;;;;4958584;29;20505;-64
2021/04/20 11:57:16;;;;;;;882.80;815.08;;;17.60;65.50;;;;;;4958438;29;20426;-65
2021/04/20 11:59:48;;;;;;;891.03;820.95;;;16.80;67.60;;;;;;4957166;28;20936;-64
2021/04/20 12:02:18;;;;;;;922.05;844.38;;;16.30;70.40;;;;;;4952519;28;20500;-65
2021/04/20 12:04:48;;;;;;;764.25;700.65;;;16.70;71.70;;;;;;4958883;29;20480;-66
2021/04/20 12:07:24;;;;;;;773.78;710.15;;;19.30;65.60;;;;;;4956945;29;20804;-64
2021/04/20 12:09:55;;;;;;;789.65;726.60;;;21.20;59.90;;;;;;4957002;29;20416;-66
2021/04/20 12:12:28;;;;;;;808.53;745.17;;;20.60;59.70;;;;;;4973224;28;20444;-64
2021/04/20 12:14:57;;;;;;;1004.38;929.78;;;19.80;60.20;;;;;;4957008;29;20433;-68
2021/04/20 12:17:31;;;;;;;958.67;888.00;;;18.50;65.20;;;;;;4956272;29;20425;-64
2021/04/20 12:20:06;;;;;;;977.10;904.90;;;17.70;67.80;;;;;;4972748;28;20409;-66
2021/04/20 12:22:33;;;;;;;981.60;909.20;;;17.40;69.60;;;;;;4958232;28;20430;-66
2021/04/20 12:25:03;;;;;;;871.30;803.67;;;16.70;70.50;;;;;;4957781;29;20600;-66
2021/04/20 12:27:58;;;;;;;845.10;778.00;;;16.40;71.80;;;;;;4973734;28;20417;-66
2021/04/20 12:30:27;;;;;;;761.67;697.53;;;16.40;73.90;;;;;;4972006;28;20413;-66
2021/04/20 12:32:57;;;;;;;765.30;701.30;;;16.60;73.40;;;;;;4957674;28;20885;-66
2021/04/20 12:35:29;;;;;;;877.63;807.15;;;17.70;71.60;;;;;;4972526;28;20425;-66
2021/04/20 12:38:00;;;;;;;853.50;785.00;;;17.80;69.50;;;;;;4972441;28;20418;-66
2021/04/20 12:40:29;;;;;;;922.20;851.05;;;18.00;69.60;;;;;;4957252;29;20422;-64
2021/04/20 12:43:02;;;;;;;902.00;832.13;;;17.90;69.60;;;;;;4957431;28;20445;-65
2021/04/20 12:45:36;;;;;;;896.20;821.50;;;18.10;66.80;;;;;;4971663;28;20432;-69
2021/04/20 12:48:07;;;;;;;905.55;831.00;;;18.20;68.50;;;;;;4972306;28;20440;-65
2021/04/20 12:50:41;;;;;;;964.35;887.17;;;18.20;67.30;;;;;;4956898;28;20416;-67
2021/04/20 12:53:10;;;;;;;940.40;865.00;;;18.40;65.30;;;;;;4971743;28;20409;-66
2021/04/20 12:55:41;;;;;;;959.55;884.58;;;18.10;62.40;;;;;;4971413;28;20645;-65
2021/04/20 12:58:13;;;;;;;867.80;796.60;;;18.90;63.70;;;;;;4971932;28;20490;-65
2021/04/20 13:00:41;;;;;;;882.90;813.03;;;19.00;63.30;;;;;;4956050;28;20965;-65
2021/04/20 13:03:13;;;;;;;759.40;695.15;;;19.50;62.30;;;;;;4957256;29;20414;-64
2021/04/20 13:05:42;;;;;;;843.25;776.88;;;19.50;60.70;;;;;;4957074;28;20429;-65
2021/04/20 13:08:12;;;;;;;703.83;643.17;;;20.20;60.50;;;;;;4957186;28;20413;-66
2021/04/20 13:10:42;;;;;;;780.92;747.28;;;20.10;59.20;;;;;;4957694;28;20425;-64
2021/04/20 13:13:12;;;;;;;266.33;257.77;;;20.00;59.70;;;;;;4971866;28;20492;-67
2021/04/20 13:15:42;;;;;;;495.20;477.15;;;20.30;58.90;;;;;;4970509;28;20418;-65